sensor_id;sensor_type;location;lat;lon;timestamp;P1;durP1;ratioP1;P2;durP2;ratioP2
47796;SDS011;33558;50.922;14.068;2022-10-03T00:52:11;7.50;;;2.20;;
47796;SDS011;33558;50.922;14.068;2022-10-03T01:51:39;12.07;;;2.20;;
47796;SDS011;33558;50.922;14.068;2022-10-03T02:06:00;13.10;;;2.43;;
47796;SDS011;33558;50.922;14.068;2022-10-03T02:08:55;15.90;;;3.07;;
47796;SDS011;33558;50.922;14.068;2022-10-03T02:12:03;15.90;;;2.97;;
47796;SDS011;33558;50.922;14.068;2022-10-03T02:14:40;15.30;;;3.83;;
47796;SDS011;33558;50.922;14.068;2022-10-03T02:24:55;18.30;;;2.77;;
47796;SDS011;33558;50.922;14.068;2022-10-03T02:30:40;10.57;;;2.67;;
47796;SDS011;33558;50.922;14.068;2022-10-03T02:33:28;15.97;;;3.80;;
47796;SDS011;33558;50.922;14.068;2022-10-03T02:36:21;13.60;;;2.80;;
47796;SDS011;33558;50.922;14.068;2022-10-03T02:39:18;16.15;;;3.15;;
47796;SDS011;33558;50.922;14.068;2022-10-03T02:42:21;17.17;;;3.53;;
47796;SDS011;33558;50.922;14.068;2022-10-03T02:45:00;18.23;;;3.40;;
47796;SDS011;33558;50.922;14.068;2022-10-03T02:47:53;13.57;;;2.90;;
47796;SDS011;33558;50.922;14.068;2022-10-03T02:50:56;10.13;;;2.97;;
47796;SDS011;33558;50.922;14.068;2022-10-03T02:53:48;13.47;;;3.23;;
47796;SDS011;33558;50.922;14.068;2022-10-03T02:56:36;14.00;;;2.77;;
47796;SDS011;33558;50.922;14.068;2022-10-03T02:59:41;14.30;;;3.83;;
47796;SDS011;33558;50.922;14.068;2022-10-03T03:02:55;23.07;;;4.27;;
47796;SDS011;33558;50.922;14.068;2022-10-03T03:08:59;19.20;;;5.20;;
47796;SDS011;33558;50.922;14.068;2022-10-03T03:18:16;13.83;;;3.20;;
47796;SDS011;33558;50.922;14.068;2022-10-03T03:28:34;18.10;;;4.73;;
47796;SDS011;33558;50.922;14.068;2022-10-03T03:31:43;15.63;;;4.33;;
47796;SDS011;33558;50.922;14.068;2022-10-03T03:34:14;13.43;;;3.70;;
47796;SDS011;33558;50.922;14.068;2022-10-03T03:37:31;12.50;;;3.90;;
47796;SDS011;33558;50.922;14.068;2022-10-03T03:40:10;18.05;;;4.40;;
47796;SDS011;33558;50.922;14.068;2022-10-03T03:43:00;18.17;;;4.80;;
47796;SDS011;33558;50.922;14.068;2022-10-03T03:46:34;24.23;;;5.70;;
47796;SDS011;33558;50.922;14.068;2022-10-03T03:49:25;18.27;;;4.87;;
47796;SDS011;33558;50.922;14.068;2022-10-03T03:52:02;24.40;;;5.17;;
47796;SDS011;33558;50.922;14.068;2022-10-03T03:59:06;19.80;;;5.20;;
47796;SDS011;33558;50.922;14.068;2022-10-03T08:20:21;11.07;;;3.40;;
47796;SDS011;33558;50.922;14.068;2022-10-03T09:25:22;10.23;;;3.10;;
47796;SDS011;33558;50.922;14.068;2022-10-03T09:28:47;9.27;;;2.90;;
47796;SDS011;33558;50.922;14.068;2022-10-03T09:34:34;9.03;;;4.70;;
47796;SDS011;33558;50.922;14.068;2022-10-03T09:37:11;11.73;;;3.03;;
47796;SDS011;33558;50.922;14.068;2022-10-03T09:40:12;5.43;;;2.33;;
47796;SDS011;33558;50.922;14.068;2022-10-03T09:42:58;7.73;;;2.77;;
47796;SDS011;33558;50.922;14.068;2022-10-03T09:48:34;9.53;;;3.33;;
47796;SDS011;33558;50.922;14.068;2022-10-03T09:51:16;9.70;;;3.07;;
47796;SDS011;33558;50.922;14.068;2022-10-03T09:53:57;8.82;;;3.20;;
47796;SDS011;33558;50.922;14.068;2022-10-03T09:57:09;12.93;;;2.83;;
47796;SDS011;33558;50.922;14.068;2022-10-03T10:00:02;13.53;;;2.53;;
47796;SDS011;33558;50.922;14.068;2022-10-03T10:02:57;7.10;;;2.40;;
47796;SDS011;33558;50.922;14.068;2022-10-03T10:05:40;7.57;;;2.20;;
47796;SDS011;33558;50.922;14.068;2022-10-03T10:08:28;7.47;;;2.33;;
47796;SDS011;33558;50.922;14.068;2022-10-03T10:11:19;7.23;;;2.27;;
47796;SDS011;33558;50.922;14.068;2022-10-03T10:14:15;9.50;;;2.20;;
47796;SDS011;33558;50.922;14.068;2022-10-03T10:20:00;8.73;;;2.83;;
47796;SDS011;33558;50.922;14.068;2022-10-03T10:25:37;12.90;;;3.80;;
47796;SDS011;33558;50.922;14.068;2022-10-03T10:28:41;9.43;;;2.60;;
47796;SDS011;33558;50.922;14.068;2022-10-03T10:44:09;6.68;;;2.55;;
47796;SDS011;33558;50.922;14.068;2022-10-03T10:50:13;7.70;;;2.30;;
47796;SDS011;33558;50.922;14.068;2022-10-03T11:05:30;6.43;;;2.00;;
47796;SDS011;33558;50.922;14.068;2022-10-03T11:08:26;8.40;;;2.63;;
47796;SDS011;33558;50.922;14.068;2022-10-03T11:17:38;9.20;;;1.97;;
47796;SDS011;33558;50.922;14.068;2022-10-03T11:28:17;7.90;;;2.40;;
47796;SDS011;33558;50.922;14.068;2022-10-03T11:36:46;7.03;;;2.13;;
47796;SDS011;33558;50.922;14.068;2022-10-03T11:39:36;9.37;;;2.10;;
47796;SDS011;33558;50.922;14.068;2022-10-03T11:42:11;8.57;;;1.87;;
47796;SDS011;33558;50.922;14.068;2022-10-03T11:44:50;9.13;;;2.00;;
47796;SDS011;33558;50.922;14.068;2022-10-03T11:47:38;8.93;;;2.30;;
47796;SDS011;33558;50.922;14.068;2022-10-03T11:50:22;9.57;;;2.10;;
47796;SDS011;33558;50.922;14.068;2022-10-03T11:55:50;5.50;;;1.80;;
47796;SDS011;33558;50.922;14.068;2022-10-03T11:58:26;6.75;;;1.80;;
47796;SDS011;33558;50.922;14.068;2022-10-03T12:01:02;7.23;;;2.13;;
47796;SDS011;33558;50.922;14.068;2022-10-03T12:03:43;8.20;;;2.00;;
47796;SDS011;33558;50.922;14.068;2022-10-03T12:06:16;8.70;;;2.60;;
47796;SDS011;33558;50.922;14.068;2022-10-03T12:09:23;6.70;;;2.20;;
47796;SDS011;33558;50.922;14.068;2022-10-03T12:11:57;8.20;;;2.20;;
47796;SDS011;33558;50.922;14.068;2022-10-03T12:14:32;8.27;;;2.03;;
47796;SDS011;33558;50.922;14.068;2022-10-03T12:17:06;9.07;;;2.27;;
47796;SDS011;33558;50.922;14.068;2022-10-03T12:19:40;10.77;;;2.15;;
47796;SDS011;33558;50.922;14.068;2022-10-03T12:22:17;9.17;;;2.00;;
47796;SDS011;33558;50.922;14.068;2022-10-03T12:24:53;9.32;;;2.05;;
47796;SDS011;33558;50.922;14.068;2022-10-03T12:27:30;7.82;;;1.73;;
47796;SDS011;33558;50.922;14.068;2022-10-03T12:30:12;9.30;;;3.00;;
47796;SDS011;33558;50.922;14.068;2022-10-03T12:32:43;13.60;;;3.27;;
47796;SDS011;33558;50.922;14.068;2022-10-03T12:37:54;9.70;;;2.27;;
47796;SDS011;33558;50.922;14.068;2022-10-03T12:40:30;9.97;;;2.63;;
47796;SDS011;33558;50.922;14.068;2022-10-03T12:43:01;10.77;;;2.40;;
47796;SDS011;33558;50.922;14.068;2022-10-03T12:45:33;8.43;;;2.37;;
47796;SDS011;33558;50.922;14.068;2022-10-03T12:48:15;9.77;;;2.50;;
47796;SDS011;33558;50.922;14.068;2022-10-03T12:50:53;10.47;;;2.67;;
47796;SDS011;33558;50.922;14.068;2022-10-03T12:53:29;9.40;;;2.13;;
47796;SDS011;33558;50.922;14.068;2022-10-03T12:56:21;11.40;;;2.10;;
47796;SDS011;33558;50.922;14.068;2022-10-03T12:59:06;7.17;;;2.20;;
47796;SDS011;33558;50.922;14.068;2022-10-03T13:02:02;7.40;;;2.42;;
47796;SDS011;33558;50.922;14.068;2022-10-03T13:04:54;7.93;;;2.57;;
47796;SDS011;33558;50.922;14.068;2022-10-03T13:07:32;8.37;;;2.10;;
47796;SDS011;33558;50.922;14.068;2022-10-03T13:10:14;9.63;;;2.33;;
47796;SDS011;33558;50.922;14.068;2022-10-03T13:12:47;5.90;;;1.87;;
47796;SDS011;33558;50.922;14.068;2022-10-03T13:18:29;10.23;;;1.60;;
47796;SDS011;33558;50.922;14.068;2022-10-03T13:21:02;7.97;;;2.10;;
47796;SDS011;33558;50.922;14.068;2022-10-03T13:23:36;7.63;;;2.25;;
47796;SDS011;33558;50.922;14.068;2022-10-03T13:26:10;7.57;;;1.63;;
47796;SDS011;33558;50.922;14.068;2022-10-03T13:28:50;6.15;;;2.17;;
47796;SDS011;33558;50.922;14.068;2022-10-03T13:31:38;6.78;;;1.65;;
47796;SDS011;33558;50.922;14.068;2022-10-03T13:34:16;6.88;;;1.80;;
47796;SDS011;33558;50.922;14.068;2022-10-03T13:36:45;11.85;;;1.90;;
47796;SDS011;33558;50.922;14.068;2022-10-03T13:39:17;8.00;;;1.80;;
47796;SDS011;33558;50.922;14.068;2022-10-03T13:41:55;8.02;;;2.42;;
47796;SDS011;33558;50.922;14.068;2022-10-03T13:44:32;4.50;;;1.40;;
47796;SDS011;33558;50.922;14.068;2022-10-03T13:47:02;10.17;;;1.97;;
47796;SDS011;33558;50.922;14.068;2022-10-03T13:49:43;8.05;;;2.03;;
47796;SDS011;33558;50.922;14.068;2022-10-03T13:52:20;7.50;;;1.73;;
47796;SDS011;33558;50.922;14.068;2022-10-03T13:55:01;6.50;;;1.95;;
47796;SDS011;33558;50.922;14.068;2022-10-03T13:57:38;6.28;;;1.73;;
47796;SDS011;33558;50.922;14.068;2022-10-03T14:00:11;8.00;;;1.87;;
47796;SDS011;33558;50.922;14.068;2022-10-03T14:02:49;5.50;;;1.50;;
47796;SDS011;33558;50.922;14.068;2022-10-03T14:11:25;10.00;;;1.55;;
47796;SDS011;33558;50.922;14.068;2022-10-03T14:14:14;7.47;;;1.80;;
47796;SDS011;33558;50.922;14.068;2022-10-03T14:16:53;7.07;;;1.70;;
47796;SDS011;33558;50.922;14.068;2022-10-03T14:19:36;8.07;;;1.80;;
47796;SDS011;33558;50.922;14.068;2022-10-03T14:27:48;9.73;;;2.25;;
47796;SDS011;33558;50.922;14.068;2022-10-03T14:30:17;6.93;;;2.43;;
47796;SDS011;33558;50.922;14.068;2022-10-03T14:32:53;8.47;;;2.17;;
47796;SDS011;33558;50.922;14.068;2022-10-03T14:35:33;10.17;;;2.73;;
47796;SDS011;33558;50.922;14.068;2022-10-03T14:38:08;5.57;;;2.20;;
47796;SDS011;33558;50.922;14.068;2022-10-03T14:40:41;16.90;;;2.83;;
47796;SDS011;33558;50.922;14.068;2022-10-03T14:43:19;5.53;;;2.23;;
47796;SDS011;33558;50.922;14.068;2022-10-03T14:45:54;8.50;;;2.23;;
47796;SDS011;33558;50.922;14.068;2022-10-03T14:48:26;8.90;;;2.60;;
47796;SDS011;33558;50.922;14.068;2022-10-03T14:50:56;9.77;;;3.03;;
47796;SDS011;33558;50.922;14.068;2022-10-03T14:53:33;7.10;;;2.47;;
47796;SDS011;33558;50.922;14.068;2022-10-03T14:56:04;8.47;;;3.03;;
47796;SDS011;33558;50.922;14.068;2022-10-03T14:58:34;6.97;;;2.20;;
47796;SDS011;33558;50.922;14.068;2022-10-03T15:01:05;10.97;;;2.53;;
47796;SDS011;33558;50.922;14.068;2022-10-03T15:03:42;6.85;;;2.45;;
47796;SDS011;33558;50.922;14.068;2022-10-03T15:06:18;7.83;;;2.10;;
47796;SDS011;33558;50.922;14.068;2022-10-03T15:08:48;7.47;;;2.67;;
47796;SDS011;33558;50.922;14.068;2022-10-03T15:11:25;5.80;;;2.30;;
47796;SDS011;33558;50.922;14.068;2022-10-03T15:14:00;10.82;;;3.28;;
47796;SDS011;33558;50.922;14.068;2022-10-03T15:16:32;10.20;;;2.47;;
47796;SDS011;33558;50.922;14.068;2022-10-03T15:19:11;13.07;;;2.57;;
47796;SDS011;33558;50.922;14.068;2022-10-03T15:21:42;8.00;;;2.53;;
47796;SDS011;33558;50.922;14.068;2022-10-03T15:24:26;14.53;;;2.90;;
47796;SDS011;33558;50.922;14.068;2022-10-03T16:39:11;5.75;;;2.03;;
47796;SDS011;33558;50.922;14.068;2022-10-03T16:41:47;7.50;;;2.33;;
47796;SDS011;33558;50.922;14.068;2022-10-03T16:44:19;6.47;;;1.73;;
47796;SDS011;33558;50.922;14.068;2022-10-03T19:01:35;5.03;;;1.73;;
47796;SDS011;33558;50.922;14.068;2022-10-03T19:04:38;7.00;;;1.80;;
47796;SDS011;33558;50.922;14.068;2022-10-03T19:08:18;6.00;;;1.87;;
47796;SDS011;33558;50.922;14.068;2022-10-03T19:12:14;4.27;;;1.60;;
47796;SDS011;33558;50.922;14.068;2022-10-03T19:36:50;3.13;;;1.40;;
47796;SDS011;33558;50.922;14.068;2022-10-03T19:39:20;5.93;;;1.60;;
47796;SDS011;33558;50.922;14.068;2022-10-03T19:42:19;3.27;;;1.40;;
47796;SDS011;33558;50.922;14.068;2022-10-03T19:44:54;5.73;;;1.30;;
47796;SDS011;33558;50.922;14.068;2022-10-03T19:47:24;4.10;;;1.50;;
47796;SDS011;33558;50.922;14.068;2022-10-03T19:50:00;7.83;;;1.87;;
47796;SDS011;33558;50.922;14.068;2022-10-03T19:52:34;4.43;;;1.20;;
47796;SDS011;33558;50.922;14.068;2022-10-03T19:59:32;5.73;;;1.63;;
47796;SDS011;33558;50.922;14.068;2022-10-03T20:51:53;6.40;;;1.57;;
47796;SDS011;33558;50.922;14.068;2022-10-03T20:55:30;4.73;;;1.07;;
47796;SDS011;33558;50.922;14.068;2022-10-03T21:02:37;6.30;;;2.10;;
47796;SDS011;33558;50.922;14.068;2022-10-03T21:06:13;5.07;;;1.50;;
47796;SDS011;33558;50.922;14.068;2022-10-03T21:28:35;5.90;;;1.67;;
47796;SDS011;33558;50.922;14.068;2022-10-03T21:31:13;4.47;;;1.73;;
47796;SDS011;33558;50.922;14.068;2022-10-03T21:33:47;5.10;;;2.20;;
47796;SDS011;33558;50.922;14.068;2022-10-03T21:36:22;6.47;;;1.90;;
47796;SDS011;33558;50.922;14.068;2022-10-03T21:38:51;6.20;;;1.73;;
47796;SDS011;33558;50.922;14.068;2022-10-03T21:41:24;7.30;;;2.00;;
47796;SDS011;33558;50.922;14.068;2022-10-03T21:43:55;8.30;;;1.90;;
47796;SDS011;33558;50.922;14.068;2022-10-03T21:46:25;5.70;;;2.60;;
47796;SDS011;33558;50.922;14.068;2022-10-03T21:49:16;7.38;;;1.80;;
47796;SDS011;33558;50.922;14.068;2022-10-03T21:52:23;9.25;;;2.00;;
47796;SDS011;33558;50.922;14.068;2022-10-03T21:54:58;6.47;;;2.00;;
47796;SDS011;33558;50.922;14.068;2022-10-03T21:57:37;7.40;;;1.77;;
47796;SDS011;33558;50.922;14.068;2022-10-03T22:00:13;8.20;;;2.00;;
47796;SDS011;33558;50.922;14.068;2022-10-03T22:02:51;10.27;;;2.00;;
47796;SDS011;33558;50.922;14.068;2022-10-03T22:05:26;7.00;;;1.83;;
47796;SDS011;33558;50.922;14.068;2022-10-03T22:07:58;5.13;;;1.60;;
47796;SDS011;33558;50.922;14.068;2022-10-03T22:10:26;8.43;;;1.97;;
47796;SDS011;33558;50.922;14.068;2022-10-03T22:12:55;6.13;;;1.90;;
47796;SDS011;33558;50.922;14.068;2022-10-03T22:15:27;5.13;;;1.93;;
47796;SDS011;33558;50.922;14.068;2022-10-03T22:17:59;7.50;;;1.73;;
47796;SDS011;33558;50.922;14.068;2022-10-03T22:20:28;5.97;;;2.07;;
47796;SDS011;33558;50.922;14.068;2022-10-03T22:23:09;13.43;;;2.40;;
47796;SDS011;33558;50.922;14.068;2022-10-03T22:26:01;8.20;;;2.07;;
47796;SDS011;33558;50.922;14.068;2022-10-03T22:28:34;7.20;;;1.90;;
47796;SDS011;33558;50.922;14.068;2022-10-03T22:31:10;7.80;;;2.60;;
47796;SDS011;33558;50.922;14.068;2022-10-03T22:33:45;8.17;;;2.07;;
47796;SDS011;33558;50.922;14.068;2022-10-03T22:36:19;8.37;;;2.00;;
47796;SDS011;33558;50.922;14.068;2022-10-03T22:38:46;8.67;;;2.03;;
47796;SDS011;33558;50.922;14.068;2022-10-03T22:41:14;10.47;;;2.00;;
47796;SDS011;33558;50.922;14.068;2022-10-03T22:43:42;9.07;;;2.00;;
47796;SDS011;33558;50.922;14.068;2022-10-03T22:46:12;8.37;;;2.00;;
47796;SDS011;33558;50.922;14.068;2022-10-03T22:48:47;4.40;;;1.35;;
47796;SDS011;33558;50.922;14.068;2022-10-03T22:51:15;5.67;;;1.90;;
47796;SDS011;33558;50.922;14.068;2022-10-03T22:53:45;4.90;;;1.60;;
47796;SDS011;33558;50.922;14.068;2022-10-03T22:56:29;7.00;;;1.83;;
47796;SDS011;33558;50.922;14.068;2022-10-03T22:58:59;7.35;;;2.65;;
47796;SDS011;33558;50.922;14.068;2022-10-03T23:01:28;6.13;;;1.87;;
47796;SDS011;33558;50.922;14.068;2022-10-03T23:03:55;6.27;;;1.60;;
47796;SDS011;33558;50.922;14.068;2022-10-03T23:06:31;8.77;;;2.50;;
47796;SDS011;33558;50.922;14.068;2022-10-03T23:09:07;5.30;;;1.50;;
47796;SDS011;33558;50.922;14.068;2022-10-03T23:11:37;5.70;;;2.03;;
47796;SDS011;33558;50.922;14.068;2022-10-03T23:14:05;5.30;;;1.57;;
47796;SDS011;33558;50.922;14.068;2022-10-03T23:16:44;4.57;;;1.67;;
47796;SDS011;33558;50.922;14.068;2022-10-03T23:19:18;8.73;;;1.60;;
47796;SDS011;33558;50.922;14.068;2022-10-03T23:21:54;7.83;;;2.20;;
47796;SDS011;33558;50.922;14.068;2022-10-03T23:24:22;4.40;;;1.87;;
47796;SDS011;33558;50.922;14.068;2022-10-03T23:30:38;9.80;;;2.40;;
47796;SDS011;33558;50.922;14.068;2022-10-03T23:36:15;8.18;;;2.22;;
47796;SDS011;33558;50.922;14.068;2022-10-03T23:38:51;5.10;;;1.67;;
47796;SDS011;33558;50.922;14.068;2022-10-03T23:47:05;7.97;;;1.40;;
47796;SDS011;33558;50.922;14.068;2022-10-03T23:49:34;6.17;;;1.50;;
47796;SDS011;33558;50.922;14.068;2022-10-03T23:52:02;6.63;;;1.87;;
47796;SDS011;33558;50.922;14.068;2022-10-03T23:54:30;7.77;;;2.20;;
47796;SDS011;33558;50.922;14.068;2022-10-03T23:57:01;6.87;;;1.73;;
47796;SDS011;33558;50.922;14.068;2022-10-03T23:59:30;6.83;;;1.40;;
